createdAt,value
2022-08-17T00:00:34.965Z,57.67
2022-08-17T00:05:44.207Z,59.89
2022-08-17T00:10:47.524Z,65.36
2022-08-17T00:15:50.111Z,61.45
2022-08-17T00:20:54.181Z,57.76
2022-08-17T00:25:56.601Z,60.06
2022-08-17T00:30:59.289Z,65.55
2022-08-17T00:36:02.519Z,62.44
2022-08-17T00:41:10.708Z,60.46
2022-08-17T00:46:18.181Z,58.36
2022-08-17T00:51:25.465Z,60.79
2022-08-17T00:56:34.356Z,65.83
2022-08-17T01:01:37.955Z,62.45
2022-08-17T01:06:42.014Z,60.65
2022-08-17T01:11:46.314Z,58.24
2022-08-17T01:16:50.598Z,61.17
2022-08-17T01:22:03.102Z,66.48
2022-08-17T01:27:10.470Z,62.81
2022-08-17T01:32:14.301Z,60.12
2022-08-17T01:37:18.150Z,57.50
2022-08-17T01:42:29.368Z,59.63
2022-08-17T01:47:32.312Z,60.96
2022-08-17T01:52:39.419Z,67.54
2022-08-17T01:57:45.353Z,63.92
2022-08-17T02:02:48.092Z,61.44
2022-08-17T02:08:00.644Z,58.79
2022-08-17T02:13:04.343Z,58.51
2022-08-17T02:18:09.091Z,60.92
2022-08-17T02:23:13.599Z,66.64
2022-08-17T02:28:17.377Z,63.38
2022-08-17T02:33:20.798Z,60.81
2022-08-17T02:38:24.029Z,58.15
2022-08-17T02:43:27.536Z,60.69
2022-08-17T02:48:31.948Z,66.16
2022-08-17T02:53:35.785Z,62.31
2022-08-17T02:58:38.835Z,59.75
2022-08-17T03:03:42.123Z,57.39
2022-08-17T03:08:44.574Z,60.45
2022-08-17T03:13:46.974Z,65.82
2022-08-17T03:18:49.386Z,62.63
2022-08-17T03:23:54.736Z,60.48
2022-08-17T03:28:57.242Z,58.64
2022-08-17T03:34:00.908Z,61.54
2022-08-17T03:39:04.670Z,66.91
2022-08-17T03:44:07.163Z,63.07
2022-08-17T03:49:12.617Z,61.07
2022-08-17T03:54:17.986Z,59.78
2022-08-17T03:59:22.671Z,58.24
2022-08-17T04:04:27.608Z,61.19
2022-08-17T04:09:30.921Z,66.62
2022-08-17T04:14:39.287Z,62.70
2022-08-17T04:19:55.376Z,60.65
2022-08-17T04:24:57.893Z,59.61
2022-08-17T04:30:01.958Z,58.46
2022-08-17T04:35:04.724Z,63.04
2022-08-17T04:40:10.641Z,64.47
2022-08-17T04:45:13.066Z,60.89
2022-08-17T04:50:16.877Z,58.24
2022-08-17T04:55:19.293Z,59.94
2022-08-17T05:00:21.744Z,64.92
2022-08-17T05:05:27.648Z,61.11
2022-08-17T05:10:33.881Z,57.83
2022-08-17T05:15:45.204Z,59.07
2022-08-17T05:20:50.318Z,63.82
2022-08-17T05:25:56.307Z,60.12
2022-08-17T05:31:01.555Z,57.39
2022-08-17T05:43:24.674Z,62.87
2022-08-17T05:48:35.554Z,57.50
2022-08-17T05:53:43.574Z,60.04
2022-08-17T05:58:46.899Z,63.77
2022-08-17T06:03:55.378Z,59.13
2022-08-17T06:09:05.684Z,57.06
2022-08-17T06:14:20.672Z,58.45
2022-08-17T06:19:22.989Z,59.78
2022-08-17T06:24:31.240Z,63.06
2022-08-17T06:29:48.246Z,57.24
2022-08-17T06:34:51.779Z,57.44
2022-08-17T06:40:22.594Z,61.04
2022-08-17T06:45:31.153Z,60.65
2022-08-17T06:50:44.087Z,56.09
2022-08-17T06:55:53.845Z,57.15
2022-08-17T07:01:00.743Z,58.30
2022-08-17T07:06:10.963Z,59.26
2022-08-17T07:11:19.156Z,59.96
2022-08-17T07:16:30.384Z,60.17
2022-08-17T07:21:43.385Z,63.25
2022-08-17T07:26:46.517Z,57.62
2022-08-17T07:31:48.998Z,56.24
2022-08-17T07:37:05.110Z,57.70
2022-08-17T07:42:10.157Z,58.53
2022-08-17T07:47:19.118Z,60.20
2022-08-17T07:52:51.365Z,61.11
2022-08-17T07:57:57.176Z,62.95
2022-08-17T08:03:14.573Z,57.73
2022-08-17T08:08:25.796Z,55.14
2022-08-17T08:13:30.140Z,56.65
2022-08-17T08:18:54.169Z,56.91
2022-08-17T08:24:09.487Z,57.50
2022-08-17T08:29:28.277Z,57.54
2022-08-17T08:35:02.098Z,58.22
2022-08-17T08:40:10.820Z,57.80
2022-08-17T08:45:23.964Z,58.20
2022-08-17T08:50:38.145Z,56.99
2022-08-17T08:55:46.857Z,57.54
2022-08-17T09:00:54.493Z,57.28
2022-08-17T09:06:06.712Z,56.85
2022-08-17T09:12:02.082Z,54.43
2022-08-17T09:17:12.549Z,52.42
2022-08-17T09:22:30.317Z,52.97
2022-08-17T09:27:47.515Z,54.37
2022-08-17T09:32:58.733Z,55.12
2022-08-17T09:38:13.118Z,54.48
2022-08-17T09:43:27.493Z,51.96
2022-08-17T09:48:38.856Z,49.23
2022-08-17T09:53:44.555Z,50.12
2022-08-17T09:59:01.891Z,45.74
2022-08-17T10:04:08.713Z,46.96
2022-08-17T10:09:20.312Z,46.11
2022-08-17T10:14:36.284Z,47.94
2022-08-17T10:19:49.194Z,46.37
2022-08-17T10:25:21.507Z,45.30
2022-08-17T10:30:24.910Z,45.45
2022-08-17T10:35:30.218Z,46.81
2022-08-17T10:40:37.955Z,43.17
2022-08-17T10:46:50.064Z,45.07
2022-08-17T10:51:57.150Z,44.95
2022-08-17T10:56:59.719Z,45.72
2022-08-17T11:02:12.107Z,45.27
2022-08-17T11:07:29.098Z,43.21
2022-08-17T11:12:33.448Z,42.39
2022-08-17T11:17:41.700Z,41.71
2022-08-17T11:23:03.966Z,41.64
2022-08-17T11:28:18.034Z,39.84
2022-08-17T11:33:44.744Z,39.88
2022-08-17T11:38:57.781Z,40.22
2022-08-17T11:44:10.292Z,40.90
2022-08-17T11:49:38.944Z,41.44
2022-08-17T11:54:45.679Z,39.32
2022-08-17T11:59:48.100Z,38.76
2022-08-17T12:04:57.525Z,38.76
2022-08-17T12:10:00.932Z,40.03
2022-08-17T12:15:10.585Z,39.68
2022-08-17T12:20:16.096Z,38.23
2022-08-17T12:25:32.796Z,37.66
2022-08-17T12:30:36.179Z,37.35
2022-08-17T12:35:38.952Z,36.87
2022-08-17T12:40:54.432Z,37.26
2022-08-17T12:46:01.291Z,38.39
2022-08-17T12:51:18.092Z,38.71
2022-08-17T12:56:20.844Z,39.46
2022-08-17T13:01:25.135Z,39.69
2022-08-17T13:06:33.128Z,39.80
2022-08-17T13:11:35.644Z,40.34
2022-08-17T13:16:38.240Z,39.82
2022-08-17T13:21:45.847Z,40.32
2022-08-17T13:26:54.357Z,40.18
2022-08-17T13:32:04.285Z,40.57
2022-08-17T13:37:18.287Z,39.61
2022-08-17T13:42:29.384Z,39.49
2022-08-17T13:47:34.211Z,40.11
2022-08-17T13:52:42.946Z,39.16
2022-08-17T13:57:50.329Z,40.07
2022-08-17T14:03:09.205Z,38.78
2022-08-17T14:08:12.951Z,37.76
2022-08-17T14:13:15.300Z,36.51
2022-08-17T14:18:55.634Z,36.10
2022-08-17T14:23:43.609Z,36.08
2022-08-17T14:28:54.635Z,37.65
2022-08-17T14:33:58.943Z,38.34
2022-08-17T14:39:01.248Z,39.27
2022-08-17T14:44:04.171Z,40.06
2022-08-17T14:49:07.292Z,40.65
2022-08-17T14:54:09.830Z,40.34
2022-08-17T14:59:12.396Z,40.43
2022-08-17T15:04:18.337Z,39.93
2022-08-17T15:09:20.703Z,40.10
2022-08-17T15:14:24.499Z,39.94
2022-08-17T15:19:26.830Z,39.51
2022-08-17T15:24:29.136Z,39.38
2022-08-17T15:29:31.437Z,39.87
2022-08-17T15:34:33.793Z,39.91
2022-08-17T15:39:36.190Z,39.55
2022-08-17T15:44:39.436Z,39.18
2022-08-17T15:49:42.860Z,38.43
2022-08-17T15:54:49.087Z,37.94
2022-08-17T15:59:55.293Z,38.38
2022-08-17T16:05:02.062Z,37.40
2022-08-17T16:10:06.131Z,36.95
2022-08-17T16:15:08.768Z,34.87
2022-08-17T16:20:19.514Z,34.14
2022-08-17T16:25:38.877Z,35.00
2022-08-17T16:30:47.405Z,36.32
2022-08-17T16:35:49.675Z,37.26
2022-08-17T16:40:51.991Z,38.56
2022-08-17T16:45:54.460Z,39.36
2022-08-17T16:50:58.552Z,39.82
2022-08-17T16:56:07.293Z,40.69
2022-08-17T17:01:09.662Z,41.39
2022-08-17T17:06:13.511Z,42.49
2022-08-17T17:11:21.512Z,42.61
2022-08-17T17:16:33.041Z,43.21
2022-08-17T17:21:38.265Z,44.17
2022-08-17T17:26:40.625Z,44.76
2022-08-17T17:31:47.989Z,45.00
2022-08-17T17:36:52.503Z,44.63
2022-08-17T17:41:57.243Z,45.57
2022-08-17T17:47:00.785Z,46.30
2022-08-17T17:52:13.154Z,46.30
2022-08-17T17:57:21.493Z,47.51
2022-08-17T18:02:37.394Z,47.12
2022-08-17T18:07:44.367Z,47.78
2022-08-17T18:12:57.907Z,47.80
2022-08-17T18:18:20.426Z,48.21
2022-08-17T18:23:28.071Z,48.53
2022-08-17T18:28:33.820Z,49.44
2022-08-17T18:33:38.117Z,49.03
2022-08-17T18:38:41.889Z,48.99
2022-08-17T18:43:53.011Z,49.52
2022-08-17T18:48:59.228Z,51.60
2022-08-17T18:54:04.866Z,52.26
2022-08-17T18:59:07.231Z,53.25
2022-08-17T19:04:12.991Z,54.07
2022-08-17T19:09:18.291Z,53.97
2022-08-17T19:14:21.124Z,54.20
2022-08-17T19:19:28.205Z,54.42
2022-08-17T19:24:31.469Z,55.17
2022-08-17T19:29:39.455Z,54.25
2022-08-17T19:34:44.320Z,54.67
2022-08-17T19:39:49.613Z,54.72
2022-08-17T19:44:59.440Z,55.73
2022-08-17T19:50:08.827Z,56.40
2022-08-17T19:55:19.798Z,57.52
2022-08-17T20:00:23.083Z,57.00
2022-08-17T20:05:29.168Z,57.78
2022-08-17T20:10:37.354Z,57.48
2022-08-17T20:15:41.959Z,57.39
2022-08-17T20:20:47.333Z,57.28
2022-08-17T20:25:51.593Z,56.00
2022-08-17T20:30:54.644Z,56.86
2022-08-17T20:36:01.074Z,57.34
2022-08-17T20:41:03.876Z,57.16
2022-08-17T20:46:10.952Z,56.34
2022-08-17T20:51:13.232Z,57.01
2022-08-17T20:56:20.246Z,58.33
2022-08-17T21:01:35.106Z,61.24
2022-08-17T21:07:00.355Z,61.59
2022-08-17T21:12:05.545Z,61.37
2022-08-17T21:17:17.635Z,61.42
2022-08-17T21:22:24.244Z,60.54
2022-08-17T21:27:29.567Z,60.86
2022-08-17T21:32:33.852Z,61.48
2022-08-17T21:44:17.254Z,67.20
2022-08-17T21:49:25.986Z,70.24
2022-08-17T21:54:34.522Z,64.11
2022-08-17T21:59:38.531Z,60.02
2022-08-17T22:04:41.656Z,56.89
2022-08-17T22:09:45.601Z,58.84
2022-08-17T22:14:53.966Z,60.05
2022-08-17T22:19:59.588Z,60.81
2022-08-17T22:25:04.591Z,61.01
2022-08-17T22:30:09.885Z,60.81
2022-08-17T22:41:51.920Z,60.98
2022-08-17T22:46:57.835Z,66.12
2022-08-17T22:52:03.404Z,70.00
2022-08-17T22:57:15.377Z,64.31
2022-08-17T23:02:23.364Z,61.18
2022-08-17T23:07:25.813Z,57.75
2022-08-17T23:12:29.021Z,59.08
2022-08-17T23:17:37.233Z,61.23
2022-08-17T23:22:51.204Z,63.46
2022-08-17T23:27:55.783Z,66.51
2022-08-17T23:33:00.998Z,61.70
2022-08-17T23:38:03.380Z,58.48
2022-08-17T23:43:09.932Z,57.72
2022-08-17T23:48:28.479Z,60.56
2022-08-17T23:53:41.766Z,63.08
2022-08-17T23:58:44.681Z,67.62
